sensor_id;sensor_type;location;lat;lon;timestamp;temperature;humidity
6291;DHT22;3178;48.730;8.990;2022-11-20T00:01:40;5.30;99.90
6291;DHT22;3178;48.730;8.990;2022-11-20T00:04:06;5.30;99.90
6291;DHT22;3178;48.730;8.990;2022-11-20T00:06:31;5.30;99.90
6291;DHT22;3178;48.730;8.990;2022-11-20T00:08:59;5.30;99.90
6291;DHT22;3178;48.730;8.990;2022-11-20T00:11:26;5.30;99.90
6291;DHT22;3178;48.730;8.990;2022-11-20T00:13:54;5.30;99.90
6291;DHT22;3178;48.730;8.990;2022-11-20T00:16:22;5.30;99.90
6291;DHT22;3178;48.730;8.990;2022-11-20T00:18:48;5.30;99.90
6291;DHT22;3178;48.730;8.990;2022-11-20T00:21:17;5.30;99.90
6291;DHT22;3178;48.730;8.990;2022-11-20T00:23:43;5.40;99.90
6291;DHT22;3178;48.730;8.990;2022-11-20T00:26:14;5.40;99.90
6291;DHT22;3178;48.730;8.990;2022-11-20T00:28:41;5.40;99.90
6291;DHT22;3178;48.730;8.990;2022-11-20T00:31:14;5.30;99.90
6291;DHT22;3178;48.730;8.990;2022-11-20T00:33:41;5.40;99.90
6291;DHT22;3178;48.730;8.990;2022-11-20T00:36:09;5.40;99.90
6291;DHT22;3178;48.730;8.990;2022-11-20T00:38:35;5.40;99.90
6291;DHT22;3178;48.730;8.990;2022-11-20T00:41:03;5.40;99.90
6291;DHT22;3178;48.730;8.990;2022-11-20T00:43:30;5.40;99.90
6291;DHT22;3178;48.730;8.990;2022-11-20T00:46:04;5.40;99.90
6291;DHT22;3178;48.730;8.990;2022-11-20T00:48:30;5.40;99.90
6291;DHT22;3178;48.730;8.990;2022-11-20T00:50:56;5.40;99.90
6291;DHT22;3178;48.730;8.990;2022-11-20T00:53:22;5.40;99.90
6291;DHT22;3178;48.730;8.990;2022-11-20T00:56:03;5.40;99.90
6291;DHT22;3178;48.730;8.990;2022-11-20T00:58:40;5.40;99.90
6291;DHT22;3178;48.730;8.990;2022-11-20T01:01:13;5.30;99.90
6291;DHT22;3178;48.730;8.990;2022-11-20T01:03:43;5.30;99.90
6291;DHT22;3178;48.730;8.990;2022-11-20T01:09:12;5.20;99.90
6291;DHT22;3178;48.730;8.990;2022-11-20T01:11:41;5.20;99.90
6291;DHT22;3178;48.730;8.990;2022-11-20T01:14:10;5.10;99.90
6291;DHT22;3178;48.730;8.990;2022-11-20T01:16:39;5.10;99.90
6291;DHT22;3178;48.730;8.990;2022-11-20T01:19:07;5.10;99.90
6291;DHT22;3178;48.730;8.990;2022-11-20T01:21:39;5.00;99.90
6291;DHT22;3178;48.730;8.990;2022-11-20T01:24:06;5.00;99.90
6291;DHT22;3178;48.730;8.990;2022-11-20T01:26:36;4.90;99.90
6291;DHT22;3178;48.730;8.990;2022-11-20T01:29:03;4.80;99.90
6291;DHT22;3178;48.730;8.990;2022-11-20T01:31:33;4.80;99.90
6291;DHT22;3178;48.730;8.990;2022-11-20T01:34:02;4.80;99.90
6291;DHT22;3178;48.730;8.990;2022-11-20T01:36:30;4.70;99.90
6291;DHT22;3178;48.730;8.990;2022-11-20T01:38:59;4.60;99.90
6291;DHT22;3178;48.730;8.990;2022-11-20T01:41:28;4.60;99.90
6291;DHT22;3178;48.730;8.990;2022-11-20T01:44:15;4.50;99.90
6291;DHT22;3178;48.730;8.990;2022-11-20T01:46:59;4.50;99.90
6291;DHT22;3178;48.730;8.990;2022-11-20T01:52:27;4.40;99.90
6291;DHT22;3178;48.730;8.990;2022-11-20T01:55:00;4.40;99.90
6291;DHT22;3178;48.730;8.990;2022-11-20T01:57:28;4.30;99.90
6291;DHT22;3178;48.730;8.990;2022-11-20T02:00:03;4.30;99.90
6291;DHT22;3178;48.730;8.990;2022-11-20T02:02:28;4.30;99.90
6291;DHT22;3178;48.730;8.990;2022-11-20T02:04:56;4.30;99.90
6291;DHT22;3178;48.730;8.990;2022-11-20T02:07:24;4.30;99.90
6291;DHT22;3178;48.730;8.990;2022-11-20T02:09:50;4.40;99.90
6291;DHT22;3178;48.730;8.990;2022-11-20T02:12:16;4.30;99.90
6291;DHT22;3178;48.730;8.990;2022-11-20T02:15:00;4.30;99.90
6291;DHT22;3178;48.730;8.990;2022-11-20T02:17:26;4.30;99.90
6291;DHT22;3178;48.730;8.990;2022-11-20T02:19:52;4.30;99.90
6291;DHT22;3178;48.730;8.990;2022-11-20T02:22:23;4.30;99.90
6291;DHT22;3178;48.730;8.990;2022-11-20T02:24:52;4.30;99.90
6291;DHT22;3178;48.730;8.990;2022-11-20T02:27:18;4.30;99.90
6291;DHT22;3178;48.730;8.990;2022-11-20T02:29:55;4.30;99.90
6291;DHT22;3178;48.730;8.990;2022-11-20T02:32:34;4.30;99.90
6291;DHT22;3178;48.730;8.990;2022-11-20T02:35:38;4.30;99.90
6291;DHT22;3178;48.730;8.990;2022-11-20T02:37:57;4.30;99.90
6291;DHT22;3178;48.730;8.990;2022-11-20T02:40:24;4.30;99.90
6291;DHT22;3178;48.730;8.990;2022-11-20T02:42:54;4.30;99.90
6291;DHT22;3178;48.730;8.990;2022-11-20T02:45:20;4.30;99.90
6291;DHT22;3178;48.730;8.990;2022-11-20T02:47:46;4.40;99.90
6291;DHT22;3178;48.730;8.990;2022-11-20T02:50:11;4.40;99.90
6291;DHT22;3178;48.730;8.990;2022-11-20T02:52:37;4.40;99.90
6291;DHT22;3178;48.730;8.990;2022-11-20T02:55:03;4.50;99.90
6291;DHT22;3178;48.730;8.990;2022-11-20T02:57:28;4.50;99.90
6291;DHT22;3178;48.730;8.990;2022-11-20T02:59:54;4.50;99.90
6291;DHT22;3178;48.730;8.990;2022-11-20T03:02:20;4.50;99.90
6291;DHT22;3178;48.730;8.990;2022-11-20T03:04:45;4.60;99.90
6291;DHT22;3178;48.730;8.990;2022-11-20T03:07:11;4.60;99.90
6291;DHT22;3178;48.730;8.990;2022-11-20T03:09:36;4.60;99.90
6291;DHT22;3178;48.730;8.990;2022-11-20T03:12:02;4.60;99.90
6291;DHT22;3178;48.730;8.990;2022-11-20T03:14:28;4.60;99.90
6291;DHT22;3178;48.730;8.990;2022-11-20T03:16:53;4.60;99.90
6291;DHT22;3178;48.730;8.990;2022-11-20T03:19:19;4.60;99.90
6291;DHT22;3178;48.730;8.990;2022-11-20T03:21:44;4.60;99.90
6291;DHT22;3178;48.730;8.990;2022-11-20T03:24:10;4.60;99.90
6291;DHT22;3178;48.730;8.990;2022-11-20T03:26:35;4.50;99.90
6291;DHT22;3178;48.730;8.990;2022-11-20T03:29:03;4.60;99.90
6291;DHT22;3178;48.730;8.990;2022-11-20T03:31:33;4.60;99.90
6291;DHT22;3178;48.730;8.990;2022-11-20T03:33:59;4.50;99.90
6291;DHT22;3178;48.730;8.990;2022-11-20T03:36:26;4.50;99.90
6291;DHT22;3178;48.730;8.990;2022-11-20T03:38:53;4.50;99.90
6291;DHT22;3178;48.730;8.990;2022-11-20T03:41:22;4.50;99.90
6291;DHT22;3178;48.730;8.990;2022-11-20T03:43:52;4.40;99.90
6291;DHT22;3178;48.730;8.990;2022-11-20T03:46:19;4.40;99.90
6291;DHT22;3178;48.730;8.990;2022-11-20T03:48:44;4.40;99.90
6291;DHT22;3178;48.730;8.990;2022-11-20T03:51:17;4.40;99.90
6291;DHT22;3178;48.730;8.990;2022-11-20T03:53:44;4.40;99.90
6291;DHT22;3178;48.730;8.990;2022-11-20T03:56:12;4.30;99.90
6291;DHT22;3178;48.730;8.990;2022-11-20T03:58:40;4.30;99.90
6291;DHT22;3178;48.730;8.990;2022-11-20T04:01:07;4.30;99.90
6291;DHT22;3178;48.730;8.990;2022-11-20T04:03:34;4.40;99.90
6291;DHT22;3178;48.730;8.990;2022-11-20T04:06:08;4.30;99.90
6291;DHT22;3178;48.730;8.990;2022-11-20T04:08:34;4.30;99.90
6291;DHT22;3178;48.730;8.990;2022-11-20T04:13:38;4.30;99.90
6291;DHT22;3178;48.730;8.990;2022-11-20T04:16:05;4.30;99.90
6291;DHT22;3178;48.730;8.990;2022-11-20T04:18:31;4.30;99.90
6291;DHT22;3178;48.730;8.990;2022-11-20T04:20:57;4.30;99.90
6291;DHT22;3178;48.730;8.990;2022-11-20T04:23:23;4.30;99.90
6291;DHT22;3178;48.730;8.990;2022-11-20T04:25:49;4.30;99.90
6291;DHT22;3178;48.730;8.990;2022-11-20T04:28:14;4.40;99.90
6291;DHT22;3178;48.730;8.990;2022-11-20T04:30:40;4.40;99.90
6291;DHT22;3178;48.730;8.990;2022-11-20T04:33:06;4.40;99.90
6291;DHT22;3178;48.730;8.990;2022-11-20T04:35:34;4.40;99.90
6291;DHT22;3178;48.730;8.990;2022-11-20T04:38:00;4.40;99.90
6291;DHT22;3178;48.730;8.990;2022-11-20T04:40:26;4.40;99.90
6291;DHT22;3178;48.730;8.990;2022-11-20T04:42:51;4.40;99.90
6291;DHT22;3178;48.730;8.990;2022-11-20T04:45:17;4.40;99.90
6291;DHT22;3178;48.730;8.990;2022-11-20T04:47:42;4.40;99.90
6291;DHT22;3178;48.730;8.990;2022-11-20T04:50:08;4.40;99.90
6291;DHT22;3178;48.730;8.990;2022-11-20T04:52:35;4.50;99.90
6291;DHT22;3178;48.730;8.990;2022-11-20T04:55:00;4.40;99.90
6291;DHT22;3178;48.730;8.990;2022-11-20T04:57:26;4.50;99.90
6291;DHT22;3178;48.730;8.990;2022-11-20T04:59:51;4.50;99.90
6291;DHT22;3178;48.730;8.990;2022-11-20T05:02:17;4.50;99.90
6291;DHT22;3178;48.730;8.990;2022-11-20T05:04:43;4.50;99.90
6291;DHT22;3178;48.730;8.990;2022-11-20T05:07:08;4.50;99.90
6291;DHT22;3178;48.730;8.990;2022-11-20T05:09:34;4.60;99.90
6291;DHT22;3178;48.730;8.990;2022-11-20T05:11:59;4.60;99.90
6291;DHT22;3178;48.730;8.990;2022-11-20T05:14:25;4.60;99.90
6291;DHT22;3178;48.730;8.990;2022-11-20T05:16:50;4.60;99.90
6291;DHT22;3178;48.730;8.990;2022-11-20T05:19:16;4.70;99.90
6291;DHT22;3178;48.730;8.990;2022-11-20T05:21:41;4.70;99.90
6291;DHT22;3178;48.730;8.990;2022-11-20T05:24:07;4.70;99.90
6291;DHT22;3178;48.730;8.990;2022-11-20T05:26:32;4.70;99.90
6291;DHT22;3178;48.730;8.990;2022-11-20T05:28:58;4.70;99.90
6291;DHT22;3178;48.730;8.990;2022-11-20T05:31:24;4.70;99.90
6291;DHT22;3178;48.730;8.990;2022-11-20T05:33:50;4.80;99.90
6291;DHT22;3178;48.730;8.990;2022-11-20T05:36:17;4.70;99.90
6291;DHT22;3178;48.730;8.990;2022-11-20T05:38:43;4.70;99.90
6291;DHT22;3178;48.730;8.990;2022-11-20T05:41:14;4.70;99.90
6291;DHT22;3178;48.730;8.990;2022-11-20T05:43:41;4.70;99.90
6291;DHT22;3178;48.730;8.990;2022-11-20T05:46:08;4.70;99.90
6291;DHT22;3178;48.730;8.990;2022-11-20T05:48:35;4.70;99.90
6291;DHT22;3178;48.730;8.990;2022-11-20T05:51:03;4.70;99.90
6291;DHT22;3178;48.730;8.990;2022-11-20T05:53:30;4.70;99.90
6291;DHT22;3178;48.730;8.990;2022-11-20T05:56:01;4.70;99.90
6291;DHT22;3178;48.730;8.990;2022-11-20T05:58:27;4.70;99.90
6291;DHT22;3178;48.730;8.990;2022-11-20T06:00:53;4.70;99.90
6291;DHT22;3178;48.730;8.990;2022-11-20T06:03:19;4.70;99.90
6291;DHT22;3178;48.730;8.990;2022-11-20T06:05:45;4.70;99.90
6291;DHT22;3178;48.730;8.990;2022-11-20T06:08:10;4.70;99.90
6291;DHT22;3178;48.730;8.990;2022-11-20T06:10:36;4.70;99.90
6291;DHT22;3178;48.730;8.990;2022-11-20T06:13:01;4.70;99.90
6291;DHT22;3178;48.730;8.990;2022-11-20T06:15:27;4.70;99.90
6291;DHT22;3178;48.730;8.990;2022-11-20T06:17:53;4.80;99.90
6291;DHT22;3178;48.730;8.990;2022-11-20T06:20:19;4.80;99.90
6291;DHT22;3178;48.730;8.990;2022-11-20T06:22:45;4.80;99.90
6291;DHT22;3178;48.730;8.990;2022-11-20T06:25:10;4.80;99.90
6291;DHT22;3178;48.730;8.990;2022-11-20T06:27:36;4.90;99.90
6291;DHT22;3178;48.730;8.990;2022-11-20T06:30:02;4.90;99.90
6291;DHT22;3178;48.730;8.990;2022-11-20T06:32:27;4.90;99.90
6291;DHT22;3178;48.730;8.990;2022-11-20T06:34:53;4.90;99.90
6291;DHT22;3178;48.730;8.990;2022-11-20T06:37:19;4.90;99.90
6291;DHT22;3178;48.730;8.990;2022-11-20T06:39:44;4.90;99.90
6291;DHT22;3178;48.730;8.990;2022-11-20T06:42:10;4.90;99.90
6291;DHT22;3178;48.730;8.990;2022-11-20T06:44:35;4.90;99.90
6291;DHT22;3178;48.730;8.990;2022-11-20T06:47:00;5.00;99.90
6291;DHT22;3178;48.730;8.990;2022-11-20T06:49:26;5.00;99.90
6291;DHT22;3178;48.730;8.990;2022-11-20T06:51:52;5.00;99.90
6291;DHT22;3178;48.730;8.990;2022-11-20T06:54:17;5.00;99.90
6291;DHT22;3178;48.730;8.990;2022-11-20T06:56:49;5.00;99.90
6291;DHT22;3178;48.730;8.990;2022-11-20T06:59:14;5.00;99.90
6291;DHT22;3178;48.730;8.990;2022-11-20T07:01:40;5.00;99.90
6291;DHT22;3178;48.730;8.990;2022-11-20T07:04:06;5.00;99.90
6291;DHT22;3178;48.730;8.990;2022-11-20T07:06:31;5.00;99.90
6291;DHT22;3178;48.730;8.990;2022-11-20T07:08:57;5.10;99.90
6291;DHT22;3178;48.730;8.990;2022-11-20T07:11:23;5.00;99.90
6291;DHT22;3178;48.730;8.990;2022-11-20T07:13:48;5.10;99.90
6291;DHT22;3178;48.730;8.990;2022-11-20T07:16:14;5.10;99.90
6291;DHT22;3178;48.730;8.990;2022-11-20T07:18:39;5.10;99.90
6291;DHT22;3178;48.730;8.990;2022-11-20T07:21:08;5.10;99.90
6291;DHT22;3178;48.730;8.990;2022-11-20T07:23:34;5.10;99.90
6291;DHT22;3178;48.730;8.990;2022-11-20T07:26:07;5.10;99.90
6291;DHT22;3178;48.730;8.990;2022-11-20T07:28:33;5.10;99.90
6291;DHT22;3178;48.730;8.990;2022-11-20T07:30:59;5.10;99.90
6291;DHT22;3178;48.730;8.990;2022-11-20T07:33:24;5.10;99.90
6291;DHT22;3178;48.730;8.990;2022-11-20T07:35:50;5.10;99.90
6291;DHT22;3178;48.730;8.990;2022-11-20T07:38:15;5.20;99.90
6291;DHT22;3178;48.730;8.990;2022-11-20T07:40:41;5.10;99.90
6291;DHT22;3178;48.730;8.990;2022-11-20T07:43:07;5.10;99.90
6291;DHT22;3178;48.730;8.990;2022-11-20T07:45:32;5.20;99.90
6291;DHT22;3178;48.730;8.990;2022-11-20T07:47:58;5.20;99.90
6291;DHT22;3178;48.730;8.990;2022-11-20T07:50:23;5.20;99.90
6291;DHT22;3178;48.730;8.990;2022-11-20T07:52:49;5.30;99.90
6291;DHT22;3178;48.730;8.990;2022-11-20T07:55:15;5.30;99.90
6291;DHT22;3178;48.730;8.990;2022-11-20T07:57:40;5.40;99.90
6291;DHT22;3178;48.730;8.990;2022-11-20T08:00:08;5.40;99.90
6291;DHT22;3178;48.730;8.990;2022-11-20T08:02:39;5.50;99.90
6291;DHT22;3178;48.730;8.990;2022-11-20T08:05:06;5.50;99.90
6291;DHT22;3178;48.730;8.990;2022-11-20T08:07:37;5.50;99.90
6291;DHT22;3178;48.730;8.990;2022-11-20T08:10:03;5.50;99.90
6291;DHT22;3178;48.730;8.990;2022-11-20T08:12:28;5.60;99.90
6291;DHT22;3178;48.730;8.990;2022-11-20T08:15:12;5.60;99.90
6291;DHT22;3178;48.730;8.990;2022-11-20T08:17:38;5.70;99.90
6291;DHT22;3178;48.730;8.990;2022-11-20T08:20:04;5.70;99.90
6291;DHT22;3178;48.730;8.990;2022-11-20T08:22:29;5.70;99.90
6291;DHT22;3178;48.730;8.990;2022-11-20T08:24:55;5.80;99.90
6291;DHT22;3178;48.730;8.990;2022-11-20T08:27:20;5.80;99.90
6291;DHT22;3178;48.730;8.990;2022-11-20T08:29:46;5.80;99.90
6291;DHT22;3178;48.730;8.990;2022-11-20T08:32:12;5.80;99.90
6291;DHT22;3178;48.730;8.990;2022-11-20T08:34:37;5.90;99.90
6291;DHT22;3178;48.730;8.990;2022-11-20T08:37:03;5.90;99.90
6291;DHT22;3178;48.730;8.990;2022-11-20T08:39:28;5.90;99.90
6291;DHT22;3178;48.730;8.990;2022-11-20T08:41:54;5.90;99.90
6291;DHT22;3178;48.730;8.990;2022-11-20T08:44:19;6.00;99.90
6291;DHT22;3178;48.730;8.990;2022-11-20T08:46:45;6.00;99.90
6291;DHT22;3178;48.730;8.990;2022-11-20T08:49:13;6.10;99.90
6291;DHT22;3178;48.730;8.990;2022-11-20T08:51:39;6.00;99.90
6291;DHT22;3178;48.730;8.990;2022-11-20T08:54:05;6.10;99.90
6291;DHT22;3178;48.730;8.990;2022-11-20T08:56:32;6.10;99.90
6291;DHT22;3178;48.730;8.990;2022-11-20T08:58:57;6.20;99.90
6291;DHT22;3178;48.730;8.990;2022-11-20T09:01:25;6.20;99.90
6291;DHT22;3178;48.730;8.990;2022-11-20T09:03:51;6.20;99.90
6291;DHT22;3178;48.730;8.990;2022-11-20T09:06:17;6.20;99.90
6291;DHT22;3178;48.730;8.990;2022-11-20T09:08:43;6.20;99.90
6291;DHT22;3178;48.730;8.990;2022-11-20T09:11:09;6.20;99.90
6291;DHT22;3178;48.730;8.990;2022-11-20T09:13:35;6.20;99.90
6291;DHT22;3178;48.730;8.990;2022-11-20T09:16:07;6.20;99.90
6291;DHT22;3178;48.730;8.990;2022-11-20T09:18:34;6.20;99.90
6291;DHT22;3178;48.730;8.990;2022-11-20T09:21:04;6.20;99.90
6291;DHT22;3178;48.730;8.990;2022-11-20T09:23:35;6.20;99.90
6291;DHT22;3178;48.730;8.990;2022-11-20T09:26:10;6.20;99.90
6291;DHT22;3178;48.730;8.990;2022-11-20T09:28:36;6.20;99.90
6291;DHT22;3178;48.730;8.990;2022-11-20T09:31:11;6.20;99.90
6291;DHT22;3178;48.730;8.990;2022-11-20T09:33:42;6.20;99.90
6291;DHT22;3178;48.730;8.990;2022-11-20T09:36:08;6.20;99.90
6291;DHT22;3178;48.730;8.990;2022-11-20T09:38:33;6.20;99.90
6291;DHT22;3178;48.730;8.990;2022-11-20T09:41:03;6.20;99.90
6291;DHT22;3178;48.730;8.990;2022-11-20T09:46:17;6.10;99.90
6291;DHT22;3178;48.730;8.990;2022-11-20T09:49:09;6.20;99.90
6291;DHT22;3178;48.730;8.990;2022-11-20T09:54:29;6.20;99.90
6291;DHT22;3178;48.730;8.990;2022-11-20T09:57:08;6.20;99.90
6291;DHT22;3178;48.730;8.990;2022-11-20T09:59:36;6.20;99.90
6291;DHT22;3178;48.730;8.990;2022-11-20T10:02:16;6.20;99.90
6291;DHT22;3178;48.730;8.990;2022-11-20T10:04:48;6.20;99.90
6291;DHT22;3178;48.730;8.990;2022-11-20T10:07:25;6.20;99.90
6291;DHT22;3178;48.730;8.990;2022-11-20T10:09:55;6.20;99.90
6291;DHT22;3178;48.730;8.990;2022-11-20T10:18:33;6.30;99.90
6291;DHT22;3178;48.730;8.990;2022-11-20T10:23:49;6.30;99.90
6291;DHT22;3178;48.730;8.990;2022-11-20T10:29:13;6.30;99.90
6291;DHT22;3178;48.730;8.990;2022-11-20T10:31:43;6.30;99.90
6291;DHT22;3178;48.730;8.990;2022-11-20T10:34:41;6.40;99.90
6291;DHT22;3178;48.730;8.990;2022-11-20T10:37:16;6.40;99.90
6291;DHT22;3178;48.730;8.990;2022-11-20T10:47:54;6.40;99.90
6291;DHT22;3178;48.730;8.990;2022-11-20T10:50:21;6.40;99.90
6291;DHT22;3178;48.730;8.990;2022-11-20T10:53:19;6.40;99.90
6291;DHT22;3178;48.730;8.990;2022-11-20T10:56:05;6.50;99.90
6291;DHT22;3178;48.730;8.990;2022-11-20T10:58:43;6.50;99.90
6291;DHT22;3178;48.730;8.990;2022-11-20T11:01:21;6.50;99.90
6291;DHT22;3178;48.730;8.990;2022-11-20T11:03:50;6.60;99.90
6291;DHT22;3178;48.730;8.990;2022-11-20T11:06:25;6.60;99.90
6291;DHT22;3178;48.730;8.990;2022-11-20T11:08:53;6.70;99.90
6291;DHT22;3178;48.730;8.990;2022-11-20T11:11:29;6.70;99.90
6291;DHT22;3178;48.730;8.990;2022-11-20T11:14:10;6.80;99.90
6291;DHT22;3178;48.730;8.990;2022-11-20T11:16:40;6.80;99.90
6291;DHT22;3178;48.730;8.990;2022-11-20T11:19:13;6.90;99.90
6291;DHT22;3178;48.730;8.990;2022-11-20T11:21:49;6.90;99.90
6291;DHT22;3178;48.730;8.990;2022-11-20T11:24:21;7.00;99.90
6291;DHT22;3178;48.730;8.990;2022-11-20T11:27:14;7.00;99.90
6291;DHT22;3178;48.730;8.990;2022-11-20T11:29:42;7.30;99.90
6291;DHT22;3178;48.730;8.990;2022-11-20T11:32:18;7.50;99.90
6291;DHT22;3178;48.730;8.990;2022-11-20T11:34:44;8.00;99.90
6291;DHT22;3178;48.730;8.990;2022-11-20T11:37:17;8.50;99.90
6291;DHT22;3178;48.730;8.990;2022-11-20T11:39:44;9.10;99.90
6291;DHT22;3178;48.730;8.990;2022-11-20T11:42:17;9.70;99.90
6291;DHT22;3178;48.730;8.990;2022-11-20T11:44:45;10.10;99.90
6291;DHT22;3178;48.730;8.990;2022-11-20T11:47:31;10.30;99.90
6291;DHT22;3178;48.730;8.990;2022-11-20T11:55:12;10.20;99.90
6291;DHT22;3178;48.730;8.990;2022-11-20T11:57:57;10.30;99.90
6291;DHT22;3178;48.730;8.990;2022-11-20T12:00:27;10.30;99.90
6291;DHT22;3178;48.730;8.990;2022-11-20T12:03:10;10.30;99.90
6291;DHT22;3178;48.730;8.990;2022-11-20T12:05:46;10.20;99.90
6291;DHT22;3178;48.730;8.990;2022-11-20T12:08:25;10.20;99.90
6291;DHT22;3178;48.730;8.990;2022-11-20T12:11:06;10.20;99.90
6291;DHT22;3178;48.730;8.990;2022-11-20T12:16:15;10.40;99.90
6291;DHT22;3178;48.730;8.990;2022-11-20T12:18:43;10.60;99.90
6291;DHT22;3178;48.730;8.990;2022-11-20T12:21:20;10.80;99.90
6291;DHT22;3178;48.730;8.990;2022-11-20T12:30:04;11.30;99.90
6291;DHT22;3178;48.730;8.990;2022-11-20T12:38:29;11.70;99.90
6291;DHT22;3178;48.730;8.990;2022-11-20T12:43:22;12.10;99.90
6291;DHT22;3178;48.730;8.990;2022-11-20T12:49:08;12.40;99.90
6291;DHT22;3178;48.730;8.990;2022-11-20T12:51:45;12.40;99.90
6291;DHT22;3178;48.730;8.990;2022-11-20T13:07:35;12.10;99.90
6291;DHT22;3178;48.730;8.990;2022-11-20T13:10:02;12.00;99.90
6291;DHT22;3178;48.730;8.990;2022-11-20T13:12:45;11.80;99.90
6291;DHT22;3178;48.730;8.990;2022-11-20T13:15:56;11.60;99.90
6291;DHT22;3178;48.730;8.990;2022-11-20T13:18:24;11.30;99.90
6291;DHT22;3178;48.730;8.990;2022-11-20T13:20:50;11.20;99.90
6291;DHT22;3178;48.730;8.990;2022-11-20T13:23:27;11.20;99.90
6291;DHT22;3178;48.730;8.990;2022-11-20T13:26:22;11.40;99.90
6291;DHT22;3178;48.730;8.990;2022-11-20T13:29:00;11.40;99.90
6291;DHT22;3178;48.730;8.990;2022-11-20T13:31:33;11.40;99.90
6291;DHT22;3178;48.730;8.990;2022-11-20T13:34:01;11.50;99.90
6291;DHT22;3178;48.730;8.990;2022-11-20T13:36:29;11.40;99.90
6291;DHT22;3178;48.730;8.990;2022-11-20T13:38:56;11.10;99.90
6291;DHT22;3178;48.730;8.990;2022-11-20T13:41:32;10.90;99.90
6291;DHT22;3178;48.730;8.990;2022-11-20T13:46:56;10.40;99.90
6291;DHT22;3178;48.730;8.990;2022-11-20T14:00:30;9.30;99.90
6291;DHT22;3178;48.730;8.990;2022-11-20T14:05:26;9.20;99.90
6291;DHT22;3178;48.730;8.990;2022-11-20T14:07:53;9.30;99.90
6291;DHT22;3178;48.730;8.990;2022-11-20T14:10:27;9.30;99.90
6291;DHT22;3178;48.730;8.990;2022-11-20T14:12:53;9.20;99.90
6291;DHT22;3178;48.730;8.990;2022-11-20T14:15:34;9.10;99.90
6291;DHT22;3178;48.730;8.990;2022-11-20T14:18:12;8.90;99.90
6291;DHT22;3178;48.730;8.990;2022-11-20T14:20:38;8.80;99.90
6291;DHT22;3178;48.730;8.990;2022-11-20T14:23:04;8.70;99.90
6291;DHT22;3178;48.730;8.990;2022-11-20T14:25:33;8.60;99.90
6291;DHT22;3178;48.730;8.990;2022-11-20T14:28:01;8.50;99.90
6291;DHT22;3178;48.730;8.990;2022-11-20T14:30:45;8.50;99.90
6291;DHT22;3178;48.730;8.990;2022-11-20T14:33:12;8.40;99.90
6291;DHT22;3178;48.730;8.990;2022-11-20T14:35:47;8.30;99.90
6291;DHT22;3178;48.730;8.990;2022-11-20T14:38:18;8.20;99.90
6291;DHT22;3178;48.730;8.990;2022-11-20T14:40:45;8.20;99.90
6291;DHT22;3178;48.730;8.990;2022-11-20T14:43:18;8.10;99.90
6291;DHT22;3178;48.730;8.990;2022-11-20T14:45:52;8.10;99.90
6291;DHT22;3178;48.730;8.990;2022-11-20T14:48:28;8.00;99.90
6291;DHT22;3178;48.730;8.990;2022-11-20T14:50:55;7.90;99.90
6291;DHT22;3178;48.730;8.990;2022-11-20T14:53:24;7.80;99.90
6291;DHT22;3178;48.730;8.990;2022-11-20T14:56:01;7.70;99.90
6291;DHT22;3178;48.730;8.990;2022-11-20T14:58:30;7.70;99.90
6291;DHT22;3178;48.730;8.990;2022-11-20T15:00:59;7.70;99.90
6291;DHT22;3178;48.730;8.990;2022-11-20T15:03:36;7.60;99.90
6291;DHT22;3178;48.730;8.990;2022-11-20T15:06:03;7.60;99.90
6291;DHT22;3178;48.730;8.990;2022-11-20T15:08:29;7.50;99.90
6291;DHT22;3178;48.730;8.990;2022-11-20T15:10:55;7.40;99.90
6291;DHT22;3178;48.730;8.990;2022-11-20T15:13:31;7.40;99.90
6291;DHT22;3178;48.730;8.990;2022-11-20T15:16:00;7.30;99.90
6291;DHT22;3178;48.730;8.990;2022-11-20T15:18:37;7.20;99.90
6291;DHT22;3178;48.730;8.990;2022-11-20T15:21:07;7.10;99.90
6291;DHT22;3178;48.730;8.990;2022-11-20T15:23:35;7.10;99.90
6291;DHT22;3178;48.730;8.990;2022-11-20T15:26:00;7.00;99.90
6291;DHT22;3178;48.730;8.990;2022-11-20T15:28:30;7.00;99.90
6291;DHT22;3178;48.730;8.990;2022-11-20T15:30:56;7.00;99.90
6291;DHT22;3178;48.730;8.990;2022-11-20T15:33:22;7.00;99.90
6291;DHT22;3178;48.730;8.990;2022-11-20T15:35:48;6.90;99.90
6291;DHT22;3178;48.730;8.990;2022-11-20T15:38:13;6.90;99.90
6291;DHT22;3178;48.730;8.990;2022-11-20T15:40:39;6.90;99.90
6291;DHT22;3178;48.730;8.990;2022-11-20T15:43:05;6.90;99.90
6291;DHT22;3178;48.730;8.990;2022-11-20T15:45:44;6.90;99.90
6291;DHT22;3178;48.730;8.990;2022-11-20T15:48:16;6.80;99.90
6291;DHT22;3178;48.730;8.990;2022-11-20T15:50:59;6.80;99.90
6291;DHT22;3178;48.730;8.990;2022-11-20T15:53:27;6.70;99.90
6291;DHT22;3178;48.730;8.990;2022-11-20T15:55:53;6.70;99.90
6291;DHT22;3178;48.730;8.990;2022-11-20T15:58:19;6.70;99.90
6291;DHT22;3178;48.730;8.990;2022-11-20T16:00:45;6.60;99.90
6291;DHT22;3178;48.730;8.990;2022-11-20T16:03:12;6.60;99.90
6291;DHT22;3178;48.730;8.990;2022-11-20T16:05:38;6.50;99.90
6291;DHT22;3178;48.730;8.990;2022-11-20T16:08:03;6.40;99.90
6291;DHT22;3178;48.730;8.990;2022-11-20T16:10:29;6.50;99.90
6291;DHT22;3178;48.730;8.990;2022-11-20T16:12:54;6.50;99.90
6291;DHT22;3178;48.730;8.990;2022-11-20T16:15:39;6.50;99.90
6291;DHT22;3178;48.730;8.990;2022-11-20T16:18:11;6.40;99.90
6291;DHT22;3178;48.730;8.990;2022-11-20T16:20:37;6.40;99.90
6291;DHT22;3178;48.730;8.990;2022-11-20T16:23:03;6.30;99.90
6291;DHT22;3178;48.730;8.990;2022-11-20T16:25:28;6.40;99.90
6291;DHT22;3178;48.730;8.990;2022-11-20T16:27:54;6.40;99.90
6291;DHT22;3178;48.730;8.990;2022-11-20T16:30:20;6.40;99.90
6291;DHT22;3178;48.730;8.990;2022-11-20T16:32:45;6.40;99.90
6291;DHT22;3178;48.730;8.990;2022-11-20T16:35:11;6.30;99.90
6291;DHT22;3178;48.730;8.990;2022-11-20T16:37:36;6.30;99.90
6291;DHT22;3178;48.730;8.990;2022-11-20T16:40:03;6.30;99.90
6291;DHT22;3178;48.730;8.990;2022-11-20T16:42:33;6.30;99.90
6291;DHT22;3178;48.730;8.990;2022-11-20T16:44:59;6.30;99.90
6291;DHT22;3178;48.730;8.990;2022-11-20T16:47:24;6.30;99.90
6291;DHT22;3178;48.730;8.990;2022-11-20T16:49:50;6.30;99.90
6291;DHT22;3178;48.730;8.990;2022-11-20T16:52:15;6.30;99.90
6291;DHT22;3178;48.730;8.990;2022-11-20T16:54:41;6.30;99.90
6291;DHT22;3178;48.730;8.990;2022-11-20T16:57:06;6.30;99.90
6291;DHT22;3178;48.730;8.990;2022-11-20T16:59:32;6.30;99.90
6291;DHT22;3178;48.730;8.990;2022-11-20T17:01:57;6.20;99.90
6291;DHT22;3178;48.730;8.990;2022-11-20T17:04:23;6.20;99.90
6291;DHT22;3178;48.730;8.990;2022-11-20T17:06:48;6.20;99.90
6291;DHT22;3178;48.730;8.990;2022-11-20T17:09:14;6.20;99.90
6291;DHT22;3178;48.730;8.990;2022-11-20T17:11:39;6.20;99.90
6291;DHT22;3178;48.730;8.990;2022-11-20T17:14:05;6.20;99.90
6291;DHT22;3178;48.730;8.990;2022-11-20T17:16:35;6.30;99.90
6291;DHT22;3178;48.730;8.990;2022-11-20T17:19:00;6.30;99.90
6291;DHT22;3178;48.730;8.990;2022-11-20T17:21:27;6.20;99.90
6291;DHT22;3178;48.730;8.990;2022-11-20T17:23:54;6.20;99.90
6291;DHT22;3178;48.730;8.990;2022-11-20T17:26:22;6.20;99.90
6291;DHT22;3178;48.730;8.990;2022-11-20T17:29:02;6.30;99.90
6291;DHT22;3178;48.730;8.990;2022-11-20T17:31:30;6.30;99.90
6291;DHT22;3178;48.730;8.990;2022-11-20T17:33:56;6.20;99.90
6291;DHT22;3178;48.730;8.990;2022-11-20T17:36:23;6.20;99.90
6291;DHT22;3178;48.730;8.990;2022-11-20T17:38:49;6.20;99.90
6291;DHT22;3178;48.730;8.990;2022-11-20T17:41:17;6.20;99.90
6291;DHT22;3178;48.730;8.990;2022-11-20T17:43:43;6.30;99.90
6291;DHT22;3178;48.730;8.990;2022-11-20T17:46:15;6.20;99.90
6291;DHT22;3178;48.730;8.990;2022-11-20T17:48:41;6.20;99.90
6291;DHT22;3178;48.730;8.990;2022-11-20T17:51:09;6.20;99.90
6291;DHT22;3178;48.730;8.990;2022-11-20T17:53:37;6.20;99.90
6291;DHT22;3178;48.730;8.990;2022-11-20T17:56:03;6.20;99.90
6291;DHT22;3178;48.730;8.990;2022-11-20T17:58:47;6.20;99.90